CheckWX is a tool to help pilots better visualize weather data.  It is not intended as a substitute for an official pre-flight weather briefing.

03:13:12 UTC

HKWJ METAR
Wajir Airport
Wajir, Kenya
Current

9 hours ago

HKWJ 251800Z 16004KT SKC 30/21 Q1010
Observed
May-25 @ 18:00 UTC
Wind
  • 160° at 4 KTS
Visibility
Cloud Levels
  • Clear skies
Temperature
30°C / 86°F
Dewpoint
21°C / 70°F
Heat Index
33°C / 91°F
Humidity
59%
Altimeter
29.82" Hg
Pressure
1009.92 hPa
Previous

12 hours ago

HKWJ 251500Z 18007KT 9999 FEW034CB FEW036 32/20 Q1009
Observed
May-25 @ 15:00 UTC
Wind
  • 180° at 7 KTS
Visibility
10,000+ meters
Flight Rules
VFR
Cloud Levels
  • Few at 3,400' AGL
  • Few at 3,600' AGL
Temperature
32°C / 90°F
Dewpoint
20°C / 68°F
Heat Index
34°C / 94°F
Humidity
49%
Altimeter
29.79" Hg
Pressure
1008.92 hPa
Previous

13 hours ago

HKWJ 251400Z 16007KT 9999 FEW036CB SCT038 33/19 Q1009
Observed
May-25 @ 14:00 UTC
Wind
  • 160° at 7 KTS
Visibility
10,000+ meters
Flight Rules
VFR
Cloud Levels
  • Few at 3,600' AGL
  • Scattered at 3,800' AGL
Temperature
33°C / 91°F
Dewpoint
19°C / 66°F
Heat Index
34°C / 94°F
Humidity
44%
Altimeter
29.79" Hg
Pressure
1008.92 hPa